createdAt,value
2022-10-04T00:18:31.553Z,20.4
2022-10-04T00:48:31.516Z,20.3
2022-10-04T01:18:31.505Z,20.3
2022-10-04T01:48:31.545Z,20.3
2022-10-04T02:18:31.518Z,20.2
2022-10-04T02:48:31.570Z,20.1
2022-10-04T03:18:31.573Z,20.1
2022-10-04T03:48:31.541Z,20.1
2022-10-04T04:18:31.516Z,20.1
2022-10-04T04:48:31.556Z,20.0
2022-10-04T05:18:31.526Z,20.1
2022-10-04T05:48:31.503Z,20.1
2022-10-04T06:18:31.548Z,20.2
2022-10-04T06:48:31.573Z,20.3
2022-10-04T07:18:31.277Z,20.3
2022-10-04T07:48:31.609Z,20.5
2022-10-04T08:18:31.553Z,20.6
2022-10-04T08:48:31.504Z,20.7
2022-10-04T09:18:31.544Z,20.8
2022-10-04T09:48:31.503Z,20.9
2022-10-04T10:18:31.606Z,20.9
2022-10-04T10:48:31.542Z,20.9
2022-10-04T11:18:31.545Z,21.0
2022-10-04T11:48:31.532Z,21.1
2022-10-04T12:18:31.537Z,21.1
2022-10-04T12:48:31.550Z,21.2
2022-10-04T13:18:31.499Z,21.2
2022-10-04T13:48:31.604Z,21.3
2022-10-04T14:18:31.509Z,21.3
2022-10-04T14:48:31.505Z,21.5
2022-10-04T15:18:31.537Z,21.6
2022-10-04T15:48:31.523Z,21.7
2022-10-04T16:18:31.527Z,21.6
2022-10-04T16:48:31.536Z,21.5
2022-10-04T17:18:31.540Z,21.4
2022-10-04T17:48:31.474Z,21.3
2022-10-04T18:18:31.513Z,21.3
2022-10-04T18:48:31.469Z,21.2
2022-10-04T19:18:31.548Z,21.1
2022-10-04T19:48:31.508Z,21.2
2022-10-04T20:18:31.490Z,21.1
2022-10-04T20:48:31.498Z,21.0
2022-10-04T21:18:31.508Z,21.0
2022-10-04T21:48:31.488Z,20.8
2022-10-04T22:18:31.497Z,20.8
2022-10-04T22:48:31.502Z,20.7
2022-10-04T23:18:31.479Z,20.7
2022-10-04T23:48:31.477Z,20.6
